createdAt,value
2023-02-08T12:49:59.080Z,4800.00
2023-02-08T12:50:59.012Z,4900.00
2023-02-08T12:51:59.019Z,5212.00
2023-02-08T12:52:58.961Z,6036.00
2023-02-08T12:53:58.967Z,6956.00
2023-02-08T12:54:58.909Z,8452.00
2023-02-08T12:55:58.906Z,10320.00
2023-02-08T12:57:02.522Z,11408.00
2023-02-08T12:57:58.846Z,12936.00
2023-02-08T12:59:08.161Z,15552.00
2023-02-08T12:59:58.827Z,17888.00
2023-02-08T13:00:58.790Z,18624.00
2023-02-08T13:01:58.787Z,18784.00
2023-02-08T13:02:58.860Z,19232.00
2023-02-08T13:03:58.729Z,19328.00
2023-02-08T13:04:58.691Z,19776.00
2023-02-08T13:06:02.430Z,19264.00
2023-02-08T13:06:58.643Z,20256.00
2023-02-08T13:07:58.627Z,22464.00
2023-02-08T13:08:58.596Z,24160.00
2023-02-08T13:09:58.586Z,24672.00
2023-02-08T13:11:05.501Z,23840.00
2023-02-08T13:11:58.541Z,22400.00
2023-02-08T13:12:58.532Z,22912.00
2023-02-08T13:13:58.516Z,23808.00
2023-02-08T13:14:58.485Z,23232.00
2023-02-08T13:15:58.519Z,23584.00
2023-02-08T13:16:58.454Z,24736.00
2023-02-08T13:17:58.435Z,24320.00
2023-02-08T13:18:58.412Z,25280.00
2023-02-08T13:20:00.518Z,25824.00
2023-02-08T13:20:58.356Z,25280.00
2023-02-08T13:21:58.373Z,24480.00
2023-02-08T13:22:58.343Z,25152.00
2023-02-08T13:23:58.303Z,25184.00
2023-02-08T13:25:07.114Z,24384.00
2023-02-08T13:25:58.283Z,24096.00
2023-02-08T13:26:58.281Z,23936.00
2023-02-08T13:27:58.267Z,23872.00
2023-02-08T13:29:00.980Z,25088.00
2023-02-08T13:29:58.207Z,26720.00
2023-02-08T13:30:58.273Z,27648.00
2023-02-08T13:31:58.207Z,27520.00
2023-02-08T13:32:58.141Z,27296.00
2023-02-08T13:34:02.010Z,27808.00
2023-02-08T13:34:58.138Z,28000.00
2023-02-08T13:35:58.080Z,28672.00
2023-02-08T13:36:58.083Z,28448.00
2023-02-08T13:37:58.071Z,28224.00
2023-02-08T13:38:58.026Z,27840.00
2023-02-08T13:39:58.010Z,28320.00
2023-02-08T13:40:58.000Z,28352.00
2023-02-08T13:41:57.975Z,27904.00
2023-02-08T13:42:57.963Z,27904.00
2023-02-08T13:43:57.971Z,27936.00
2023-02-08T13:44:57.930Z,28128.00
2023-02-08T13:45:57.896Z,27808.00
2023-02-08T13:46:57.903Z,27104.00
2023-02-08T13:47:57.884Z,26912.00
2023-02-08T13:48:57.860Z,28160.00
2023-02-08T13:49:57.859Z,28576.00
2023-02-08T13:50:57.829Z,27616.00
2023-02-08T13:51:57.816Z,26848.00
2023-02-08T13:52:57.800Z,26752.00
2023-02-08T13:53:57.895Z,26336.00
2023-02-08T13:54:57.765Z,25664.00
2023-02-08T13:55:57.726Z,25728.00
2023-02-08T13:56:57.721Z,25120.00
2023-02-08T13:57:57.718Z,18752.00
2023-02-08T13:58:57.693Z,11604.00
2023-02-08T13:59:57.692Z,9536.00
2023-02-08T14:00:57.655Z,7756.00
2023-02-08T14:01:57.645Z,6404.00
2023-02-08T14:02:57.681Z,5712.00
2023-02-08T14:03:57.745Z,6892.00
2023-02-08T14:04:57.561Z,13564.00
2023-02-08T14:05:57.584Z,18016.00
2023-02-08T14:06:57.544Z,16768.00
2023-02-08T14:07:57.536Z,15552.00
2023-02-08T14:08:57.492Z,11904.00
2023-02-08T14:09:57.479Z,9044.00
2023-02-08T14:10:57.475Z,8196.00
2023-02-08T14:11:57.465Z,6664.00
2023-02-08T14:12:57.422Z,5204.00
2023-02-08T14:13:57.441Z,4688.00
2023-02-08T14:14:57.399Z,4492.00
2023-02-08T14:15:57.451Z,4460.00
2023-02-08T14:16:57.376Z,4472.00
2023-02-08T14:17:58.437Z,4544.00
2023-02-08T14:18:57.306Z,4672.00
2023-02-08T14:19:57.342Z,4824.00
2023-02-08T14:20:57.288Z,5056.00
2023-02-08T14:21:57.294Z,5500.00
2023-02-08T14:22:57.236Z,6612.00
2023-02-08T14:23:57.272Z,7812.00
2023-02-08T14:24:57.219Z,10796.00
2023-02-08T14:25:57.190Z,14912.00
2023-02-08T14:26:57.173Z,16096.00
2023-02-08T14:27:57.213Z,16736.00
2023-02-08T14:28:57.147Z,18560.00
2023-02-08T14:29:57.122Z,19904.00
2023-02-08T14:30:57.143Z,15776.00
2023-02-08T14:31:57.147Z,10816.00
2023-02-08T14:32:57.082Z,14944.00
2023-02-08T14:33:57.125Z,17440.00
2023-02-08T14:34:57.045Z,15488.00
2023-02-08T14:35:57.014Z,12596.00
2023-02-08T14:36:57.016Z,7320.00
